Time;durP1;ratioP1;P1;durP2;ratioP2;P2;SDS_P1;SDS_P2;PMS_P1;PMS_P2;Temp;Humidity;BMP_temperature;BMP_pressure;BME280_temperature;BME280_humidity;BME280_pressure;Samples;Min_cycle;Max_cycle;Signal;HPM_P1;HPM_P2
2022/09/05 00:01:20;;;;;;;6.55;4.10;;;;;;;9.09;63.84;101044.59;1631233;86;21064;-68
2022/09/05 00:03:59;;;;;;;8.48;4.08;;;;;;;9.06;63.88;101041.66;1631830;84;21882;-67
2022/09/05 00:06:25;;;;;;;7.37;4.20;;;;;;;9.02;63.97;101036.21;1674629;84;20955;-67
2022/09/05 00:09:00;;;;;;;6.37;4.10;;;;;;;8.99;63.97;101040.37;1652451;84;21074;-68
2022/09/05 00:11:42;;;;;;;8.58;4.05;;;;;;;9.00;64.13;101042.05;1665319;84;21071;-67
2022/09/05 00:14:54;;;;;;;7.03;4.25;;;;;;;9.00;64.13;101039.42;1667220;84;21055;-67
2022/09/05 00:17:39;;;;;;;7.53;4.20;;;;;;;9.00;64.04;101033.30;1662353;84;21965;-69
2022/09/05 00:20:17;;;;;;;6.42;4.10;;;;;;;8.94;64.04;101039.79;1665204;84;21063;-67
2022/09/05 00:22:59;;;;;;;6.22;4.10;;;;;;;8.92;64.20;101036.41;1668967;84;21034;-68
2022/09/05 00:26:04;;;;;;;6.20;3.83;;;;;;;8.92;64.32;101035.09;1685067;84;21059;-68
2022/09/05 00:28:48;;;;;;;6.28;4.15;;;;;;;8.90;64.35;101038.30;1649837;84;21001;-68
2022/09/05 00:31:55;;;;;;;6.45;4.10;;;;;;;8.88;64.37;101039.72;1667905;84;23076;-68
2022/09/05 00:35:09;;;;;;;6.40;4.20;;;;;;;8.86;64.50;101035.45;1657319;84;21031;-68
2022/09/05 00:37:44;;;;;;;6.87;3.93;;;;;;;8.87;64.64;101034.52;1654472;84;21090;-68
2022/09/05 00:40:32;;;;;;;7.58;4.08;;;;;;;8.86;64.51;101031.03;1667885;84;21678;-68
2022/09/05 00:43:06;;;;;;;6.03;3.98;;;;;;;8.85;64.46;101028.50;1678945;84;21482;-67
2022/09/05 00:45:44;;;;;;;6.70;4.47;;;;;;;8.81;64.49;101025.22;1673589;84;21925;-67
2022/09/05 00:48:34;;;;;;;8.70;4.60;;;;;;;8.78;64.56;101024.55;1651001;85;21098;-67
2022/09/05 00:51:24;;;;;;;8.58;4.40;;;;;;;8.77;64.60;101022.38;1655252;85;21445;-67
2022/09/05 00:54:12;;;;;;;5.35;4.05;;;;;;;8.76;64.63;101019.84;1672621;84;21684;-68
2022/09/05 00:57:01;;;;;;;7.70;4.60;;;;;;;8.74;64.74;101021.73;1669161;84;21031;-67
2022/09/05 01:00:01;;;;;;;6.87;4.47;;;;;;;8.73;64.90;101019.58;1661761;84;21933;-67
2022/09/05 01:03:01;;;;;;;7.62;4.50;;;;;;;8.73;64.94;101015.63;1667738;84;21027;-67
2022/09/05 01:06:05;;;;;;;8.05;4.70;;;;;;;8.71;64.81;101021.94;1667343;84;21094;-67
2022/09/05 01:09:13;;;;;;;8.55;4.37;;;;;;;8.68;64.64;101021.62;1666632;84;20980;-68
2022/09/05 01:12:09;;;;;;;9.63;4.62;;;;;;;8.67;64.52;101023.89;1650531;84;21010;-66
2022/09/05 01:14:47;;;;;;;12.70;4.42;;;;;;;8.63;64.57;101017.13;1667197;84;21879;-67
2022/09/05 01:17:43;;;;;;;8.45;4.58;;;;;;;8.60;64.72;101016.85;1665927;85;20860;-67
2022/09/05 01:20:34;;;;;;;8.48;4.80;;;;;;;8.59;64.85;101021.75;1659679;84;21015;-67
2022/09/05 01:23:22;;;;;;;7.60;4.55;;;;;;;8.57;64.89;101018.34;1666584;84;38383;-68
2022/09/05 01:26:12;;;;;;;7.47;4.45;;;;;;;8.54;64.88;101012.42;1646820;85;21101;-68
2022/09/05 01:28:47;;;;;;;9.73;4.72;;;;;;;8.50;64.79;101017.04;1667039;84;21792;-68
2022/09/05 01:31:41;;;;;;;7.53;4.62;;;;;;;8.49;64.95;101015.78;1667857;84;21466;-68
2022/09/05 01:34:22;;;;;;;8.98;5.20;;;;;;;8.49;65.13;101015.78;1666448;84;21102;-68
2022/09/05 01:36:54;;;;;;;8.73;4.80;;;;;;;8.48;65.06;101010.99;1643780;85;21021;-68
2022/09/05 01:39:42;;;;;;;9.83;4.80;;;;;;;8.48;64.95;101004.88;1666425;84;21086;-68
2022/09/05 01:42:37;;;;;;;7.60;5.10;;;;;;;8.47;64.99;101007.98;1667619;84;21837;-68
2022/09/05 01:45:21;;;;;;;8.93;5.05;;;;;;;8.47;65.11;101010.63;1669601;84;21110;-69
2022/09/05 01:48:05;;;;;;;8.25;4.97;;;;;;;8.46;65.05;100997.08;1664232;85;21566;-68
2022/09/05 01:50:58;;;;;;;10.18;4.78;;;;;;;8.47;64.98;101003.19;1623362;87;20968;-67
2022/09/05 01:53:39;;;;;;;7.78;4.42;;;;;;;8.46;65.12;101000.19;1635295;87;21090;-67
2022/09/05 01:56:32;;;;;;;10.35;4.53;;;;;;;8.45;65.06;100999.34;1642390;86;21939;-68
2022/09/05 01:59:11;;;;;;;9.15;4.90;;;;;;;8.44;64.97;101002.07;1623948;87;21039;-69
2022/09/05 02:02:20;;;;;;;12.05;5.58;;;;;;;8.41;64.99;100996.53;1641324;86;21046;-68
2022/09/05 02:05:08;;;;;;;8.28;4.58;;;;;;;8.44;65.17;101004.70;1623878;87;21492;-68
2022/09/05 02:08:08;;;;;;;7.80;4.60;;;;;;;8.43;64.93;100999.06;1640534;86;20991;-68
2022/09/05 02:11:09;;;;;;;7.47;4.75;;;;;;;8.45;65.07;100999.81;1629908;87;21121;-68
2022/09/05 02:13:44;;;;;;;7.42;4.78;;;;;;;8.45;65.17;101003.30;1659268;86;21011;-69
2022/09/05 02:16:39;;;;;;;7.00;4.58;;;;;;;8.47;65.28;101001.41;1646269;86;21037;-68
2022/09/05 02:19:15;;;;;;;9.00;5.10;;;;;;;8.46;65.29;100997.08;1602738;87;21087;-68
2022/09/05 02:22:11;;;;;;;8.53;4.28;;;;;;;8.44;65.33;100998.12;1619694;87;21010;-68
2022/09/05 02:24:44;;;;;;;6.83;4.28;;;;;;;8.45;65.33;100997.18;1640216;86;21872;-67
2022/09/05 02:27:38;;;;;;;8.35;4.67;;;;;;;8.45;65.23;101000.66;1639660;87;21020;-68
2022/09/05 02:30:23;;;;;;;7.15;4.35;;;;;;;8.45;65.04;100995.39;1622709;86;21028;-67
2022/09/05 02:33:10;;;;;;;7.83;4.42;;;;;;;8.45;64.98;100991.91;1637712;86;21089;-68
2022/09/05 02:35:50;;;;;;;10.10;4.40;;;;;;;8.45;64.99;100987.97;1623074;87;21049;-68
2022/09/05 02:38:40;;;;;;;6.90;4.42;;;;;;;8.47;64.79;100986.08;1640327;86;21807;-68
2022/09/05 02:41:33;;;;;;;8.88;4.40;;;;;;;8.48;64.78;100984.66;1639959;86;21023;-67
2022/09/05 02:44:26;;;;;;;8.50;4.70;;;;;;;8.50;64.96;100988.08;1622837;87;21528;-67
2022/09/05 02:47:21;;;;;;;7.72;4.30;;;;;;;8.51;65.03;100984.50;1639827;86;21004;-68
2022/09/05 02:50:29;;;;;;;8.30;4.62;;;;;;;8.54;65.10;100984.30;1624791;87;21022;-67
2022/09/05 02:52:57;;;;;;;7.45;4.50;;;;;;;8.54;64.84;100985.63;1639441;86;22092;-68
2022/09/05 02:55:57;;;;;;;8.00;4.58;;;;;;;8.52;64.76;100984.88;1625805;86;21084;-67
2022/09/05 02:58:55;;;;;;;7.15;4.25;;;;;;;8.53;64.88;100994.46;1640042;86;21054;-66
2022/09/05 03:01:53;;;;;;;8.93;4.92;;;;;;;8.55;64.90;100995.68;1621703;87;21491;-67
2022/09/05 03:04:28;;;;;;;7.40;4.30;;;;;;;8.58;64.96;100998.11;1638100;86;21023;-69
2022/09/05 03:07:09;;;;;;;7.55;4.17;;;;;;;8.57;64.77;101002.54;1621018;87;21832;-68
2022/09/05 03:10:05;;;;;;;6.60;3.90;;;;;;;8.56;64.67;101000.00;1638912;86;21066;-67
2022/09/05 03:13:04;;;;;;;7.22;4.45;;;;;;;8.55;64.58;100999.16;1622920;87;20998;-66
2022/09/05 03:16:15;;;;;;;10.30;4.25;;;;;;;8.53;64.53;101000.20;1639181;86;21095;-67
2022/09/05 03:18:56;;;;;;;7.72;4.00;;;;;;;8.51;64.54;101000.30;1622284;87;21081;-67
2022/09/05 03:22:08;;;;;;;7.87;4.40;;;;;;;8.54;64.60;101002.73;1640359;86;22472;-68
2022/09/05 03:25:18;;;;;;;7.95;4.03;;;;;;;8.55;64.47;100991.26;1622847;87;21411;-68
2022/09/05 03:28:41;;;;;;;6.78;4.00;;;;;;;8.56;64.63;100996.90;1639822;86;21581;-68
2022/09/05 03:31:31;;;;;;;6.83;4.25;;;;;;;8.56;64.54;100996.90;1622630;87;21049;-67
2022/09/05 03:34:31;;;;;;;6.37;4.35;;;;;;;8.55;64.41;100998.31;1639385;86;21011;-67
2022/09/05 03:37:29;;;;;;;9.03;4.45;;;;;;;8.54;64.48;100997.47;1625029;87;21860;-67
2022/09/05 03:40:19;;;;;;;8.55;4.42;;;;;;;8.58;64.64;101000.28;1623178;87;21414;-67
2022/09/05 03:43:31;;;;;;;7.65;4.17;;;;;;;8.63;64.58;101001.80;1635321;86;21517;-67
2022/09/05 03:46:21;;;;;;;7.42;4.00;;;;;;;8.65;64.36;101002.55;1656731;84;21099;-67
2022/09/05 03:48:53;;;;;;;8.18;4.03;;;;;;;8.66;64.37;101008.19;1654210;85;21053;-67
2022/09/05 03:52:03;;;;;;;5.70;3.87;;;;;;;8.68;64.33;101004.98;1655647;85;21858;-68
2022/09/05 03:54:59;;;;;;;7.08;4.00;;;;;;;8.69;64.28;101006.23;1654885;85;21097;-67
2022/09/05 03:57:49;;;;;;;8.63;4.33;;;;;;;8.71;64.15;101007.45;1648442;85;21565;-67
2022/09/05 04:00:25;;;;;;;5.40;3.80;;;;;;;8.76;64.26;101006.20;1648917;85;21066;-67
2022/09/05 04:03:16;;;;;;;6.33;4.17;;;;;;;8.81;64.24;101005.94;1657404;85;21101;-67
2022/09/05 04:05:47;;;;;;;6.95;4.40;;;;;;;8.82;64.10;101001.89;1693232;83;22628;-67
2022/09/05 04:08:35;;;;;;;6.20;3.72;;;;;;;8.82;64.07;101004.52;1685189;83;20989;-67
2022/09/05 04:11:15;;;;;;;6.55;3.90;;;;;;;8.83;64.09;101003.58;1683904;83;21105;-67
2022/09/05 04:14:08;;;;;;;6.37;4.20;;;;;;;8.85;64.06;101010.06;1689716;83;21033;-68
2022/09/05 04:16:49;;;;;;;6.97;4.28;;;;;;;8.88;64.07;101009.42;1689502;83;21728;-67
2022/09/05 04:19:36;;;;;;;7.60;4.08;;;;;;;8.89;63.94;101005.00;1695631;84;22854;-68
2022/09/05 04:22:22;;;;;;;9.23;4.40;;;;;;;8.88;63.94;101004.62;1697195;83;20989;-66
2022/09/05 04:24:58;;;;;;;6.00;4.08;;;;;;;8.91;63.98;101004.89;1689861;83;21036;-68
2022/09/05 04:27:46;;;;;;;5.30;3.87;;;;;;;8.95;64.00;101009.86;1685127;83;21103;-67
2022/09/05 04:30:40;;;;;;;7.28;3.90;;;;;;;9.02;63.98;101009.86;1693366;83;22336;-67
2022/09/05 04:33:29;;;;;;;7.10;4.00;;;;;;;9.09;63.98;101013.81;1654680;84;21884;-67
2022/09/05 04:36:01;;;;;;;5.83;3.90;;;;;;;9.18;64.07;101013.70;1698075;83;20985;-67
2022/09/05 04:38:40;;;;;;;5.90;3.90;;;;;;;9.26;63.96;101016.67;1666495;84;21495;-67
2022/09/05 04:41:22;;;;;;;8.20;4.03;;;;;;;9.33;63.88;101015.35;1642399;85;21550;-68
2022/09/05 04:43:58;;;;;;;6.42;4.15;;;;;;;9.41;63.82;101010.91;1669703;85;21141;-67
2022/09/05 04:46:29;;;;;;;10.25;4.80;;;;;;;9.45;63.73;101015.88;1642763;85;21817;-68
2022/09/05 04:49:06;;;;;;;8.50;4.97;;;;;;;9.51;63.72;101012.48;1638722;86;21019;-67
2022/09/05 04:52:01;;;;;;;8.23;4.80;;;;;;;9.58;63.94;101014.62;1639200;86;20960;-67
2022/09/05 04:54:49;;;;;;;9.88;5.10;;;;;;;9.68;63.89;101007.80;1621468;87;21050;-68
2022/09/05 04:57:42;;;;;;;11.85;4.87;;;;;;;9.79;63.73;101009.73;1638297;86;21050;-67
2022/09/05 05:00:17;;;;;;;7.92;4.60;;;;;;;9.87;63.77;101006.12;1624441;87;21257;-68
2022/09/05 05:02:50;;;;;;;8.75;4.65;;;;;;;9.97;63.84;101008.99;1638769;86;21059;-67
2022/09/05 05:05:24;;;;;;;7.37;4.53;;;;;;;10.07;63.86;101011.38;1622877;87;25694;-68
2022/09/05 05:07:59;;;;;;;;;;;;;;;10.17;63.69;101015.57;1639593;86;21456;-68
2022/09/05 05:10:41;;;;;;;6.83;4.10;;;;;;;10.28;63.79;101014.40;1639186;86;20187;-68
2022/09/05 05:13:16;;;;;;;8.10;4.08;;;;;;;10.39;63.87;101012.34;1622082;86;22438;-68
2022/09/05 05:16:13;;;;;;;6.33;4.12;;;;;;;10.49;63.77;101008.12;1638808;86;21134;-68
2022/09/05 05:18:53;;;;;;;7.33;4.45;;;;;;;10.59;63.51;101011.81;1640715;86;21075;-67
2022/09/05 05:21:22;;;;;;;7.60;4.22;;;;;;;10.71;63.60;101010.98;1638373;86;21490;-69
2022/09/05 05:24:08;;;;;;;9.80;4.60;;;;;;;10.81;63.55;101010.70;1635845;86;21011;-67
2022/09/05 05:26:43;;;;;;;10.45;4.95;;;;;;;10.92;63.33;101008.62;1660102;85;21952;-68
2022/09/05 05:29:18;;;;;;;9.48;5.03;;;;;;;11.04;63.01;101005.58;1648266;85;21135;-68
2022/09/05 05:31:56;;;;;;;9.90;4.97;;;;;;;11.16;62.83;101012.15;1660227;85;21082;-68
2022/09/05 05:34:42;;;;;;;13.38;5.72;;;;;;;11.29;62.58;101012.58;1611665;87;21046;-67
2022/09/05 05:37:41;;;;;;;13.28;6.65;;;;;;;11.42;62.42;101011.60;1584194;87;20919;-68
2022/09/05 05:40:16;;;;;;;13.30;7.37;;;;;;;11.57;62.22;101003.00;1618717;86;22501;-68
2022/09/05 05:42:43;;;;;;;15.40;7.65;;;;;;;11.74;61.87;100997.80;1632385;86;21023;-67
2022/09/05 05:45:29;;;;;;;17.48;8.13;;;;;;;11.86;61.45;100995.58;1660889;85;21216;-68
2022/09/05 05:48:05;;;;;;;17.02;7.42;;;;;;;11.98;61.17;100987.23;1658917;85;21352;-67
2022/09/05 05:51:02;;;;;;;11.18;6.75;;;;;;;12.14;60.88;100989.05;1658396;85;21014;-67
2022/09/05 05:54:00;;;;;;;10.65;6.70;;;;;;;12.28;60.40;100986.69;1660371;85;21693;-68
2022/09/05 05:57:01;;;;;;;13.13;7.30;;;;;;;12.45;59.74;100996.84;1594610;87;21050;-66
2022/09/05 05:59:46;;;;;;;13.88;7.75;;;;;;;12.60;59.04;100992.98;1624550;86;21047;-68
2022/09/05 06:02:22;;;;;;;14.47;8.33;;;;;;;12.77;58.72;100997.45;1641161;86;20999;-69
2022/09/05 06:05:30;;;;;;;10.98;7.35;;;;;;;12.92;58.50;100999.36;1659316;85;21596;-68
2022/09/05 06:08:17;;;;;;;18.48;8.25;;;;;;;13.05;58.02;100994.78;1660417;85;21845;-67
2022/09/05 06:11:17;;;;;;;14.00;7.28;;;;;;;13.22;57.23;101001.41;1659694;85;21111;-68
2022/09/05 06:14:07;;;;;;;11.57;6.90;;;;;;;13.36;56.47;100995.84;1660288;85;21059;-68
2022/09/05 06:17:04;;;;;;;12.65;6.95;;;;;;;13.51;55.80;100989.75;1659158;85;21000;-69
2022/09/05 06:19:45;;;;;;;11.28;6.37;;;;;;;13.64;55.25;100987.30;1614525;85;21083;-68
2022/09/05 06:22:29;;;;;;;12.33;7.25;;;;;;;13.80;54.78;100991.33;1653894;85;22006;-68
2022/09/05 06:25:28;;;;;;;16.25;7.35;;;;;;;14.01;53.93;100989.56;1659476;85;21078;-67
2022/09/05 06:28:29;;;;;;;12.20;7.20;;;;;;;14.23;53.29;100994.73;1661318;85;21098;-68
2022/09/05 06:31:20;;;;;;;14.68;7.33;;;;;;;14.44;52.51;100987.23;1660381;85;21039;-68
2022/09/05 06:34:09;;;;;;;16.17;7.00;;;;;;;14.61;52.21;100991.98;1658610;85;21121;-68
2022/09/05 06:37:15;;;;;;;13.38;7.40;;;;;;;14.80;52.39;100993.88;1658810;85;21809;-68
2022/09/05 06:40:22;;;;;;;16.17;6.60;;;;;;;14.99;52.23;100998.43;1587063;87;21465;-68
2022/09/05 06:43:09;;;;;;;9.98;5.67;;;;;;;15.21;51.35;101002.69;1612609;87;21497;-68
2022/09/05 06:46:19;;;;;;;6.62;3.92;;;;;;;15.40;50.15;101000.91;1629499;86;21476;-68
2022/09/05 06:49:07;;;;;;;7.45;2.85;;;;;;;15.64;48.38;100998.39;1611005;87;21123;-68
2022/09/05 06:51:58;;;;;;;6.75;2.60;;;;;;;15.92;46.86;100998.02;1648460;85;22016;-68
2022/09/05 06:55:05;;;;;;;3.12;2.02;;;;;;;16.14;45.07;100997.73;1636000;86;21059;-68
2022/09/05 06:58:03;;;;;;;3.77;1.90;;;;;;;16.39;43.84;101002.09;1636808;86;21039;-68
2022/09/05 07:00:49;;;;;;;3.62;1.80;;;;;;;16.58;42.90;100997.55;1652563;85;21113;-68
2022/09/05 07:04:01;;;;;;;4.10;1.85;;;;;;;16.71;42.68;100997.27;1620727;87;21523;-68
2022/09/05 07:07:06;;;;;;;4.65;1.87;;;;;;;16.82;42.13;100994.91;1646889;85;22028;-67
2022/09/05 07:09:57;;;;;;;4.40;1.55;;;;;;;16.94;42.04;100994.22;1650560;85;21724;-67
2022/09/05 07:12:31;;;;;;;3.70;1.60;;;;;;;17.09;41.51;100991.41;1646945;85;21104;-67
2022/09/05 07:15:07;;;;;;;4.53;1.80;;;;;;;17.26;40.49;100991.92;1619955;87;21157;-67
2022/09/05 07:18:07;;;;;;;3.60;1.80;;;;;;;17.39;40.67;100990.24;1622736;87;21126;-68
2022/09/05 07:20:56;;;;;;;6.47;2.20;;;;;;;17.57;40.47;100983.59;1618637;87;21975;-68
2022/09/05 07:23:50;;;;;;;5.37;2.00;;;;;;;17.80;39.94;100979.48;1622567;87;21130;-68
2022/09/05 07:26:17;;;;;;;3.22;1.98;;;;;;;18.00;39.99;100979.64;1646798;85;21497;-68
2022/09/05 07:28:46;;;;;;;3.92;2.35;;;;;;;18.22;38.50;100983.64;1646466;85;20991;-69
2022/09/05 07:31:16;;;;;;;4.10;2.30;;;;;;;18.38;37.78;100985.59;1650660;85;21010;-68
2022/09/05 07:33:45;;;;;;;4.75;2.15;;;;;;;18.51;37.10;100981.98;1649218;85;21782;-67
2022/09/05 07:36:17;;;;;;;3.25;2.05;;;;;;;18.59;36.79;100976.69;1646614;85;21022;-67
2022/09/05 07:38:49;;;;;;;3.08;1.75;;;;;;;18.67;37.02;100978.60;1647356;85;21117;-67
2022/09/05 07:41:25;;;;;;;5.30;2.20;;;;;;;18.75;35.76;100976.47;1647385;85;21062;-65
2022/09/05 07:43:56;;;;;;;2.55;2.12;;;;;;;18.76;35.56;100968.78;1650386;85;20995;-67
2022/09/05 07:46:29;;;;;;;6.05;2.20;;;;;;;18.82;36.11;100963.63;1628756;85;22501;-67
2022/09/05 07:49:15;;;;;;;3.55;2.10;;;;;;;18.92;36.30;100966.69;1647548;85;21103;-69
2022/09/05 07:51:53;;;;;;;6.58;2.55;;;;;;;18.99;36.19;100961.00;1657333;84;21098;-68
2022/09/05 07:54:34;;;;;;;6.87;2.25;;;;;;;19.04;35.28;100958.19;1657866;85;21523;-70
2022/09/05 07:57:05;;;;;;;4.80;2.20;;;;;;;19.05;35.78;100955.84;1626677;86;21043;-69
2022/09/05 07:59:34;;;;;;;5.10;2.58;;;;;;;19.07;34.85;100958.35;1636874;86;23102;-68
2022/09/05 08:02:01;;;;;;;7.12;2.83;;;;;;;19.00;34.80;100954.14;1635064;86;21139;-69
2022/09/05 08:04:33;;;;;;;2.85;2.22;;;;;;;18.96;34.85;100970.70;1636855;86;22177;-70
2022/09/05 08:07:13;;;;;;;8.55;2.62;;;;;;;18.94;35.17;100962.00;1637405;86;21343;-70
2022/09/05 08:09:47;;;;;;;6.12;3.37;;;;;;;19.01;35.96;100947.81;1636537;86;21087;-71
2022/09/05 08:12:20;;;;;;;7.22;3.65;;;;;;;19.21;35.37;100943.52;1638152;86;21914;-69
2022/09/05 08:15:07;;;;;;;6.90;3.15;;;;;;;19.37;34.89;100939.51;1627386;87;21086;-69
2022/09/05 08:17:43;;;;;;;4.80;3.27;;;;;;;19.39;34.78;100941.01;1658799;85;21059;-72
2022/09/05 08:20:48;;;;;;;4.20;2.98;;;;;;;19.30;35.34;100938.02;1645168;85;21065;-71
2022/09/05 08:23:33;;;;;;;5.60;3.00;;;;;;;19.34;35.87;100944.70;1644984;85;21145;-68
2022/09/05 08:26:50;;;;;;;7.33;3.08;;;;;;;19.57;36.19;100928.00;1620871;87;21665;-70
2022/09/05 08:29:36;;;;;;;6.25;2.90;;;;;;;19.87;35.24;100935.37;1602596;88;21430;-69
2022/09/05 08:32:21;;;;;;;5.20;3.02;;;;;;;20.07;35.33;100931.83;1563564;89;21084;-71
2022/09/05 08:35:01;;;;;;;4.90;2.87;;;;;;;20.19;35.17;100925.63;1580958;90;21081;-70
2022/09/05 08:37:28;;;;;;;5.78;2.87;;;;;;;20.26;35.00;100927.94;1598568;89;20984;-72
2022/09/05 08:40:03;;;;;;;3.35;2.77;;;;;;;20.29;34.67;100922.25;1582173;89;21654;-70
2022/09/05 08:42:57;;;;;;;4.53;3.12;;;;;;;20.28;34.95;100926.78;1580558;89;21017;-70
2022/09/05 08:45:53;;;;;;;5.80;3.33;;;;;;;20.22;34.84;100920.75;1580375;89;21071;-71
2022/09/05 08:48:37;;;;;;;5.90;3.12;;;;;;;20.20;35.05;100923.28;1584341;89;21546;-71
2022/09/05 08:51:27;;;;;;;3.80;2.80;;;;;;;20.14;35.19;100914.56;1570862;89;21137;-72
2022/09/05 08:54:15;;;;;;;6.75;2.85;;;;;;;20.11;35.41;100925.64;1582507;89;22505;-72
2022/09/05 08:57:11;;;;;;;5.75;3.42;;;;;;;20.07;35.42;100916.24;1588435;89;21101;-69
2022/09/05 08:59:48;;;;;;;7.65;3.20;;;;;;;20.10;35.31;100915.92;1581531;89;21108;-70
2022/09/05 09:02:38;;;;;;;9.55;3.20;;;;;;;20.11;35.13;100916.25;1600976;88;21059;-71
2022/09/05 09:05:16;;;;;;;6.05;3.10;;;;;;;20.15;35.53;100914.39;1520588;90;21092;-71
2022/09/05 09:08:19;;;;;;;4.47;2.90;;;;;;;20.25;35.85;100914.20;1568303;90;21975;-72
2022/09/05 09:11:05;;;;;;;3.98;2.90;;;;;;;20.38;36.04;100909.66;1564581;90;21080;-74
2022/09/05 09:14:15;;;;;;;5.85;3.10;;;;;;;20.52;35.71;100907.62;1564525;90;21161;-70
2022/09/05 09:17:00;;;;;;;8.73;3.40;;;;;;;20.65;35.93;100899.00;1561537;89;21566;-69
2022/09/05 09:19:50;;;;;;;5.22;3.58;;;;;;;20.73;36.55;100894.94;1568326;90;21854;-71
2022/09/05 09:22:45;;;;;;;7.33;3.47;;;;;;;20.77;36.62;100905.17;1578794;89;21811;-72
2022/09/05 09:25:28;;;;;;;6.20;3.10;;;;;;;20.78;36.81;100901.98;1609902;86;21061;-71
2022/09/05 09:28:26;;;;;;;6.25;3.42;;;;;;;20.93;36.36;100894.83;1625389;86;21473;-70
2022/09/05 09:31:48;;;;;;;5.72;3.25;;;;;;;21.13;36.46;100900.59;1615739;86;21514;-71
2022/09/05 09:34:33;;;;;;;5.47;3.30;;;;;;;21.32;36.66;100894.77;1618667;87;21033;-71
2022/09/05 09:37:28;;;;;;;5.15;3.52;;;;;;;21.48;36.30;100899.20;1621099;87;21874;-70
2022/09/05 09:40:21;;;;;;;7.35;2.98;;;;;;;21.59;35.67;100897.94;1602175;86;21445;-71
2022/09/05 09:43:26;;;;;;;5.03;3.42;;;;;;;21.65;34.81;100894.54;1628651;86;21490;-71
2022/09/05 09:46:11;;;;;;;4.75;3.30;;;;;;;21.63;34.72;100881.80;1549001;90;21677;-71
2022/09/05 09:49:06;;;;;;;9.40;3.62;;;;;;;21.68;35.72;100876.69;1624919;87;21057;-71
2022/09/05 09:51:57;;;;;;;5.33;3.58;;;;;;;21.92;35.50;100875.64;1633289;86;22278;-70
2022/09/05 09:55:06;;;;;;;6.65;3.77;;;;;;;22.04;34.24;100865.26;1625781;86;20958;-71
2022/09/05 09:57:38;;;;;;;6.10;3.47;;;;;;;22.18;33.90;100857.20;1617610;87;21098;-70
2022/09/05 10:00:12;;;;;;;6.80;3.30;;;;;;;22.39;33.39;100848.88;1583378;89;21448;-70
2022/09/05 10:03:08;;;;;;;6.90;3.22;;;;;;;22.58;32.73;100850.99;1616677;87;21683;-70
2022/09/05 10:05:58;;;;;;;6.00;3.20;;;;;;;22.69;33.17;100834.38;1627972;87;21965;-69
2022/09/05 10:08:39;;;;;;;5.83;3.45;;;;;;;22.92;32.79;100838.28;1630636;86;21045;-70
2022/09/05 10:11:49;;;;;;;6.45;3.80;;;;;;;23.14;33.44;100830.52;1610066;87;21072;-72
2022/09/05 10:14:33;;;;;;;9.08;3.40;;;;;;;23.31;33.79;100824.35;1610375;87;21492;-70
2022/09/05 10:17:42;;;;;;;5.30;3.20;;;;;;;23.63;33.80;100820.80;1631117;86;21088;-71
2022/09/05 10:20:34;;;;;;;6.67;3.42;;;;;;;23.97;34.04;100820.83;1612977;86;22011;-71
2022/09/05 10:23:20;;;;;;;5.87;3.33;;;;;;;24.13;33.13;100828.30;1614989;87;21037;-72
2022/09/05 10:26:26;;;;;;;6.20;3.62;;;;;;;24.05;33.42;100823.06;1612846;88;21076;-72
2022/09/05 10:29:12;;;;;;;6.17;3.42;;;;;;;23.88;33.05;100823.88;1626115;87;21462;-70
2022/09/05 10:32:05;;;;;;;10.05;3.50;;;;;;;23.32;31.70;100837.31;1590152;88;21213;-71
2022/09/05 10:35:03;;;;;;;44.67;5.25;;;;;;;22.74;33.41;100848.60;1603054;87;22057;-72
2022/09/05 10:37:41;;;;;;;22.95;4.20;;;;;;;22.20;38.77;100876.72;1622363;86;21049;-71
2022/09/05 10:40:13;;;;;;;8.48;3.70;;;;;;;21.01;43.29;100885.39;1639397;85;21120;-70
2022/09/05 10:42:57;;;;;;;8.80;3.77;;;;;;;19.79;47.26;100891.17;1653834;85;21080;-70
2022/09/05 10:45:53;;;;;;;9.23;3.58;;;;;;;18.91;49.90;100907.43;1633635;86;21076;-70
2022/09/05 10:48:44;;;;;;;5.72;3.50;;;;;;;18.21;52.10;100926.31;1620171;87;21971;-69
2022/09/05 10:51:33;;;;;;;7.25;3.47;;;;;;;17.67;53.83;100936.26;1624267;87;21009;-70
2022/09/05 10:54:32;;;;;;;4.15;3.12;;;;;;;17.33;55.23;100938.27;1619995;86;21084;-70
2022/09/05 10:57:24;;;;;;;5.22;3.20;;;;;;;17.03;55.80;100934.61;1616370;87;21033;-68
2022/09/05 11:00:05;;;;;;;4.35;2.92;;;;;;;16.95;56.43;100915.34;1615274;86;21081;-69
2022/09/05 11:02:40;;;;;;;4.20;2.95;;;;;;;17.01;57.67;100918.76;1631876;87;22443;-69
2022/09/05 11:05:24;;;;;;;4.67;3.12;;;;;;;17.06;58.83;100910.28;1627338;87;21044;-70
2022/09/05 11:08:03;;;;;;;;;;;;;;;17.15;59.27;100904.87;1604477;87;21012;-70
2022/09/05 11:10:56;;;;;;;4.12;2.80;;;;;;;17.27;60.04;100902.82;1614908;88;20423;-69
2022/09/05 11:13:55;;;;;;;4.60;2.62;;;;;;;17.50;60.43;100907.72;1624630;87;21486;-69
2022/09/05 11:16:43;;;;;;;3.15;2.30;;;;;;;17.86;59.92;100905.38;1621903;87;21926;-72
2022/09/05 11:19:42;;;;;;;6.05;2.12;;;;;;;18.32;59.59;100901.97;1556730;89;21126;-69
2022/09/05 11:22:09;;;;;;;3.10;2.00;;;;;;;18.85;57.60;100891.54;1614583;87;21087;-71
2022/09/05 11:24:57;;;;;;;2.75;1.92;;;;;;;19.41;55.08;100886.79;1613240;88;21033;-70
2022/09/05 11:27:39;;;;;;;2.83;1.98;;;;;;;19.80;53.85;100888.83;1614229;87;21088;-69
2022/09/05 11:30:17;;;;;;;3.80;2.00;;;;;;;20.19;51.72;100885.40;1582578;89;21990;-70
2022/09/05 11:33:08;;;;;;;4.83;1.90;;;;;;;20.43;49.53;100885.84;1613656;88;21076;-70
2022/09/05 11:35:55;;;;;;;5.17;3.35;;;;;;;20.54;47.54;100893.00;1633752;86;21471;-71
2022/09/05 11:38:50;;;;;;;9.48;4.40;;;;;;;20.67;45.56;100880.89;1616945;87;21150;-70
2022/09/05 11:41:59;;;;;;;6.33;4.03;;;;;;;20.66;44.57;100878.72;1593436;89;21102;-70
2022/09/05 11:44:40;;;;;;;6.75;3.90;;;;;;;20.64;44.07;100867.30;1620182;86;22149;-70
2022/09/05 11:47:48;;;;;;;5.30;3.83;;;;;;;20.85;45.21;100862.68;1639711;86;21057;-71
2022/09/05 11:50:38;;;;;;;6.35;4.10;;;;;;;21.15;44.87;100856.44;1630010;85;21060;-71
2022/09/05 11:53:35;;;;;;;10.03;4.05;;;;;;;21.48;43.80;100854.86;1585789;89;21067;-69
2022/09/05 11:56:25;;;;;;;10.20;4.30;;;;;;;21.80;43.01;100850.19;1643689;86;21045;-70
2022/09/05 11:59:20;;;;;;;9.33;4.58;;;;;;;22.15;41.69;100845.48;1741898;82;21901;-69
2022/09/05 12:01:55;;;;;;;6.00;4.00;;;;;;;22.36;40.65;100846.58;1734797;82;21026;-69
2022/09/05 12:04:57;;;;;;;6.55;4.05;;;;;;;22.57;38.76;100837.21;1732597;81;21136;-70
2022/09/05 12:08:01;;;;;;;5.75;3.65;;;;;;;22.68;38.85;100828.67;1665475;85;22129;-69
2022/09/05 12:11:01;;;;;;;5.30;3.70;;;;;;;22.81;37.48;100832.02;1685406;83;21077;-69
2022/09/05 12:14:09;;;;;;;6.20;3.30;;;;;;;22.92;37.65;100825.32;1639477;87;21871;-70
2022/09/05 12:17:03;;;;;;;9.78;3.35;;;;;;;23.00;36.42;100820.65;1689820;83;21108;-71
2022/09/05 12:20:14;;;;;;;5.03;3.45;;;;;;;23.17;37.05;100819.89;1698486;82;21520;-72
2022/09/05 12:22:47;;;;;;;5.37;3.12;;;;;;;23.60;36.67;100815.80;1608900;87;21098;-72
2022/09/05 12:25:28;;;;;;;5.55;3.47;;;;;;;23.79;35.36;100818.33;1609722;88;21071;-71
2022/09/05 12:27:58;;;;;;;5.85;3.70;;;;;;;23.65;36.03;100820.11;1611049;87;21859;-72
2022/09/05 12:30:27;;;;;;;6.15;3.60;;;;;;;23.52;35.72;100818.09;1614962;87;21127;-71
2022/09/05 12:33:09;;;;;;;6.78;4.30;;;;;;;23.38;35.72;100812.29;1617635;87;21550;-69
2022/09/05 12:35:42;;;;;;;7.65;4.92;;;;;;;23.29;35.86;100804.85;1617383;88;21119;-69
2022/09/05 12:38:39;;;;;;;9.55;5.10;;;;;;;23.28;36.25;100805.88;1592749;88;21090;-68
2022/09/05 12:41:21;;;;;;;8.75;5.50;;;;;;;23.28;36.20;100805.05;1618161;88;21989;-70
2022/09/05 12:44:19;;;;;;;9.13;5.70;;;;;;;23.32;36.46;100797.72;1617061;88;21063;-70
2022/09/05 12:46:51;;;;;;;10.70;5.15;;;;;;;23.55;36.17;100797.50;1617148;87;21103;-69
2022/09/05 12:50:05;;;;;;;7.87;5.20;;;;;;;23.74;35.60;100791.95;1614598;87;21123;-69
2022/09/05 12:52:38;;;;;;;8.40;4.87;;;;;;;24.05;35.04;100787.47;1612482;88;21087;-70
2022/09/05 12:55:30;;;;;;;8.55;5.05;;;;;;;24.27;34.33;100782.78;1643386;85;21818;-70
2022/09/05 12:58:01;;;;;;;6.17;4.67;;;;;;;24.42;34.20;100786.73;1615300;88;22247;-73
2022/09/05 13:00:40;;;;;;;7.12;4.83;;;;;;;24.44;34.32;100780.60;1615241;88;21067;-70
2022/09/05 13:03:08;;;;;;;6.85;5.12;;;;;;;24.64;34.03;100783.36;1616843;87;21572;-70